createdAt,value
2023-03-04T00:01:37.771Z,93043.88
2023-03-04T00:06:41.321Z,93047.56
2023-03-04T00:11:44.806Z,93051.69
2023-03-04T00:16:49.528Z,93053.31
2023-03-04T00:21:52.729Z,93059.06
2023-03-04T00:26:57.165Z,93060.50
2023-03-04T00:32:00.853Z,93057.97
2023-03-04T00:37:04.488Z,93074.78
2023-03-04T00:42:08.760Z,93081.69
2023-03-04T00:47:12.128Z,93079.47
2023-03-04T00:52:15.828Z,93076.75
2023-03-04T00:57:19.393Z,93077.53
2023-03-04T01:02:23.569Z,93062.97
2023-03-04T01:07:27.096Z,93066.88
2023-03-04T01:12:31.089Z,93066.31
2023-03-04T01:17:36.290Z,93066.00
2023-03-04T01:22:40.157Z,93049.34
2023-03-04T01:27:44.263Z,93035.94
2023-03-04T01:32:47.581Z,93025.72
2023-03-04T01:37:53.488Z,93019.66
2023-03-04T01:42:57.097Z,93016.78
2023-03-04T01:48:00.822Z,93000.34
2023-03-04T01:53:05.147Z,93002.19
2023-03-04T01:58:12.408Z,92988.03
2023-03-04T02:03:22.668Z,92978.19
2023-03-04T02:08:26.089Z,92981.25
2023-03-04T02:13:29.793Z,92967.13
2023-03-04T02:18:33.190Z,92963.97
2023-03-04T02:23:45.627Z,92964.34
2023-03-04T02:28:51.282Z,92964.31
2023-03-04T02:33:59.039Z,92960.19
2023-03-04T02:39:12.651Z,92955.06
2023-03-04T02:44:20.858Z,92941.44
2023-03-04T02:49:27.117Z,92954.44
2023-03-04T02:54:31.909Z,92928.44
2023-03-04T02:59:39.364Z,92953.28
2023-03-04T03:04:43.505Z,92943.19
2023-03-04T03:09:50.093Z,92935.00
2023-03-04T03:14:55.697Z,92940.50
2023-03-04T03:20:01.093Z,92935.44
2023-03-04T03:25:06.407Z,92928.22
2023-03-04T03:30:13.028Z,92929.06
2023-03-04T03:35:16.814Z,92927.63
2023-03-04T03:40:20.817Z,92931.56
2023-03-04T03:45:24.575Z,92933.16
2023-03-04T03:50:29.752Z,92944.31
2023-03-04T03:55:33.514Z,92942.28
2023-03-04T04:00:39.473Z,92948.97
2023-03-04T04:05:43.040Z,92946.06
2023-03-04T04:10:47.141Z,92959.03
2023-03-04T04:15:53.034Z,92965.88
2023-03-04T04:20:57.451Z,92967.31
2023-03-04T04:26:01.041Z,92961.16
2023-03-04T04:31:09.367Z,92963.31
2023-03-04T04:36:17.266Z,92974.00
2023-03-04T04:41:24.415Z,92978.81
2023-03-04T04:46:29.630Z,92969.97
2023-03-04T04:51:33.812Z,92973.34
2023-03-04T04:56:37.703Z,92962.44
2023-03-04T05:01:41.647Z,92962.66
2023-03-04T05:06:45.777Z,92952.16
2023-03-04T05:11:50.369Z,92962.59
2023-03-04T05:16:54.642Z,92958.88
2023-03-04T05:21:58.331Z,92962.13
2023-03-04T05:27:02.953Z,92980.38
2023-03-04T05:32:07.191Z,92980.03
2023-03-04T05:37:11.857Z,92970.59
2023-03-04T05:42:16.583Z,92990.31
2023-03-04T05:47:20.873Z,93001.00
2023-03-04T05:52:24.623Z,93004.47
2023-03-04T05:57:28.045Z,93003.25
2023-03-04T06:02:32.455Z,93004.28
2023-03-04T06:07:36.137Z,92997.31
2023-03-04T06:12:39.372Z,93010.78
2023-03-04T06:17:43.476Z,93016.31
2023-03-04T06:22:47.581Z,93019.75
2023-03-04T06:27:51.596Z,93037.84
2023-03-04T06:32:55.600Z,93036.78
2023-03-04T06:37:58.921Z,93024.09
2023-03-04T06:43:03.386Z,93021.78
2023-03-04T06:48:07.218Z,93022.16
2023-03-04T06:53:11.393Z,93019.53
2023-03-04T06:58:15.235Z,93016.56
2023-03-04T07:03:18.577Z,93023.56
2023-03-04T07:08:22.179Z,93030.38
2023-03-04T07:13:26.233Z,93040.13
2023-03-04T07:18:29.828Z,93043.53
2023-03-04T07:23:34.477Z,93035.00
2023-03-04T07:28:38.367Z,93045.31
2023-03-04T07:33:42.024Z,93050.63
2023-03-04T07:38:47.648Z,93055.81
2023-03-04T07:43:52.222Z,93063.38
2023-03-04T07:48:56.741Z,93057.09
2023-03-04T07:54:02.262Z,93060.69
2023-03-04T07:59:07.077Z,93064.03
2023-03-04T08:04:11.060Z,93056.16
2023-03-04T08:09:15.238Z,93052.41
2023-03-04T08:14:18.839Z,93058.75
2023-03-04T08:19:23.606Z,93061.69
2023-03-04T08:24:29.122Z,93069.16
2023-03-04T08:29:32.876Z,93068.25
2023-03-04T08:34:39.767Z,93076.13
2023-03-04T08:39:43.152Z,93074.03
2023-03-04T08:44:46.911Z,93075.53
2023-03-04T08:49:50.591Z,93087.09
2023-03-04T08:54:54.846Z,93088.66
2023-03-04T08:59:59.438Z,93090.13
2023-03-04T09:05:03.522Z,93078.25
2023-03-04T09:10:07.910Z,93078.72
2023-03-04T09:15:12.252Z,93069.00
2023-03-04T09:20:16.633Z,93078.44
2023-03-04T09:25:21.214Z,93064.81
2023-03-04T09:30:25.157Z,93071.88
2023-03-04T09:35:30.407Z,93066.97
2023-03-04T09:40:40.691Z,93059.28
2023-03-04T09:45:49.805Z,93066.41
2023-03-04T09:51:24.993Z,93045.56
2023-03-04T09:56:29.301Z,93054.38
2023-03-04T10:01:51.413Z,93049.72
2023-03-04T10:06:56.179Z,93050.19
2023-03-04T10:12:07.439Z,93050.00
2023-03-04T10:17:22.812Z,93040.63
2023-03-04T10:22:35.411Z,93038.28
2023-03-04T10:27:39.364Z,93052.88
2023-03-04T10:32:48.558Z,93049.34
2023-03-04T10:37:53.641Z,93040.78
2023-03-04T10:43:00.722Z,93055.97
2023-03-04T10:48:04.449Z,93055.47
2023-03-04T10:53:38.106Z,93049.38
2023-03-04T10:58:42.488Z,93055.41
2023-03-04T11:03:50.831Z,93051.59
2023-03-04T11:09:00.107Z,93073.19
2023-03-04T11:14:23.787Z,93068.28
2023-03-04T11:19:56.945Z,93064.50
2023-03-04T11:25:08.189Z,93056.31
2023-03-04T11:30:27.409Z,93071.06
2023-03-04T11:35:43.619Z,93051.56
2023-03-04T11:40:55.479Z,93048.97
2023-03-04T11:46:30.455Z,93063.34
2023-03-04T11:51:39.360Z,93059.84
2023-03-04T11:56:46.534Z,93043.13
2023-03-04T12:02:05.633Z,93046.75
2023-03-04T12:07:20.864Z,93032.06
2023-03-04T12:12:52.754Z,93023.44
2023-03-04T12:18:14.977Z,93020.56
2023-03-04T12:23:25.014Z,93011.78
2023-03-04T12:29:06.368Z,92998.47
2023-03-04T12:34:13.627Z,93000.25
2023-03-04T12:39:43.363Z,92994.56
2023-03-04T12:45:26.050Z,92967.50
2023-03-04T12:50:43.059Z,92964.97
2023-03-04T12:55:48.434Z,92974.09
2023-03-04T13:00:58.532Z,92962.84
2023-03-04T13:06:24.685Z,92967.06
2023-03-04T13:11:29.131Z,92968.84
2023-03-04T13:16:35.775Z,92963.13
2023-03-04T13:21:55.454Z,92957.91
2023-03-04T13:27:00.712Z,92952.47
2023-03-04T13:32:11.904Z,92950.59
2023-03-04T13:37:32.553Z,92948.50
2023-03-04T13:42:44.146Z,92939.88
2023-03-04T13:47:49.296Z,92939.25
2023-03-04T13:52:53.823Z,92942.78
2023-03-04T13:57:57.988Z,92950.50
2023-03-04T14:03:31.755Z,92948.72
2023-03-04T14:08:35.613Z,92949.69
2023-03-04T14:13:39.497Z,92930.66
2023-03-04T14:18:43.380Z,92921.03
2023-03-04T14:23:47.211Z,92905.63
2023-03-04T14:28:53.170Z,92904.13
2023-03-04T14:34:05.224Z,92903.44
2023-03-04T14:39:15.742Z,92901.22
2023-03-04T14:44:38.397Z,92904.19
2023-03-04T14:49:42.276Z,92901.59
2023-03-04T14:55:02.798Z,92893.91
2023-03-04T15:00:23.102Z,92896.00
2023-03-04T15:05:32.357Z,92895.59
2023-03-04T15:10:38.626Z,92863.94
2023-03-04T15:15:47.484Z,92903.03
2023-03-04T15:21:02.964Z,92909.25
2023-03-04T15:26:11.634Z,92911.41
2023-03-04T15:31:21.650Z,92913.41
2023-03-04T15:36:25.498Z,92922.28
2023-03-04T15:41:29.041Z,92905.75
2023-03-04T15:46:33.195Z,92886.59
2023-03-04T15:51:37.669Z,92924.09
2023-03-04T15:56:41.501Z,92938.31
2023-03-04T16:01:45.396Z,92938.19
2023-03-04T16:06:50.836Z,92944.25
2023-03-04T16:11:56.789Z,92923.75
2023-03-04T16:17:00.468Z,92947.63
2023-03-04T16:22:04.550Z,92949.66
2023-03-04T16:27:16.023Z,92949.66
2023-03-04T16:32:20.487Z,92951.63
2023-03-04T16:37:24.172Z,92955.91
2023-03-04T16:42:28.565Z,92949.66
2023-03-04T16:47:32.764Z,92952.03
2023-03-04T16:52:38.130Z,92959.28
2023-03-04T16:57:41.829Z,92964.53
2023-03-04T17:02:47.072Z,92968.66
2023-03-04T17:07:50.870Z,92975.53
2023-03-04T17:12:55.445Z,92974.03
2023-03-04T17:17:58.911Z,92989.31
2023-03-04T17:23:02.909Z,92989.47
2023-03-04T17:28:06.636Z,92993.53
2023-03-04T17:33:09.798Z,93005.72
2023-03-04T17:38:15.376Z,92998.72
2023-03-04T17:43:19.533Z,93013.69
2023-03-04T17:48:22.897Z,93023.16
2023-03-04T17:53:27.151Z,93012.63
2023-03-04T17:58:33.740Z,93019.53
2023-03-04T18:03:38.140Z,93028.34
2023-03-04T18:08:41.526Z,93036.63
2023-03-04T18:13:45.756Z,93037.56
2023-03-04T18:18:50.695Z,93039.56
2023-03-04T18:23:54.287Z,93039.91
2023-03-04T18:28:58.251Z,93037.72
2023-03-04T18:34:02.922Z,93030.84
2023-03-04T18:39:07.802Z,93039.81
2023-03-04T18:44:12.175Z,93037.13
2023-03-04T18:49:16.569Z,93039.63
2023-03-04T18:54:19.977Z,93039.38
2023-03-04T18:59:47.543Z,93046.50
2023-03-04T19:04:53.516Z,93035.47
2023-03-04T19:09:56.950Z,93058.50
2023-03-04T19:15:00.863Z,93069.91
2023-03-04T19:20:06.942Z,93073.41
2023-03-04T19:25:11.120Z,93073.66
2023-03-04T19:30:15.246Z,93084.09
2023-03-04T19:35:19.157Z,93083.09
2023-03-04T19:40:23.730Z,93091.59
2023-03-04T19:45:27.148Z,93091.53
2023-03-04T19:50:32.237Z,93100.75
2023-03-04T19:55:39.046Z,93099.44
2023-03-04T20:00:43.117Z,93100.81
2023-03-04T20:05:48.091Z,93099.84
2023-03-04T20:10:51.545Z,93113.81
2023-03-04T20:15:55.286Z,93119.34
2023-03-04T20:20:58.493Z,93119.28
2023-03-04T20:26:02.587Z,93113.44
2023-03-04T20:31:16.178Z,93125.28
2023-03-04T20:36:21.478Z,93125.69
2023-03-04T20:41:27.208Z,93122.91
2023-03-04T20:46:46.420Z,93128.09
2023-03-04T20:51:56.536Z,93124.16
2023-03-04T20:57:01.109Z,93120.69
2023-03-04T21:02:07.439Z,93129.59
2023-03-04T21:07:11.128Z,93126.13
2023-03-04T21:12:14.518Z,93124.16
2023-03-04T21:17:19.130Z,93112.88
2023-03-04T21:22:22.905Z,93115.59
2023-03-04T21:27:26.782Z,93101.19
2023-03-04T21:32:30.750Z,93130.19
2023-03-04T21:37:36.186Z,93130.94
2023-03-04T21:42:39.925Z,93143.34
2023-03-04T21:47:43.994Z,93143.41
2023-03-04T21:52:47.981Z,93131.63
2023-03-04T21:57:51.792Z,93139.94
2023-03-04T22:02:56.506Z,93134.47
2023-03-04T22:08:00.687Z,93131.22
2023-03-04T22:13:05.392Z,93133.84
2023-03-04T22:18:11.493Z,93111.66
2023-03-04T22:23:15.807Z,93126.78
2023-03-04T22:28:19.319Z,93128.31
2023-03-04T22:33:25.347Z,93129.00
2023-03-04T22:38:29.600Z,93120.03
2023-03-04T22:43:34.061Z,93124.56
2023-03-04T22:48:38.543Z,93134.66
2023-03-04T22:53:43.823Z,93126.94
2023-03-04T22:58:48.438Z,93123.03
2023-03-04T23:03:51.941Z,93129.22
2023-03-04T23:08:55.255Z,93134.72
2023-03-04T23:14:02.417Z,93138.56
2023-03-04T23:19:07.325Z,93132.22
2023-03-04T23:24:12.660Z,93139.16
2023-03-04T23:29:16.872Z,93146.41
2023-03-04T23:34:20.970Z,93121.00
2023-03-04T23:39:24.717Z,93121.03
2023-03-04T23:44:28.018Z,93122.91
2023-03-04T23:49:31.944Z,93121.78
2023-03-04T23:54:36.119Z,93125.66
2023-03-04T23:59:40.738Z,93140.41
